Time,TemperatureF,DewpointF,PressureIn,WindDirection,WindDirectionDegrees,WindSpeedMPH,WindSpeedGustMPH,Humidity,HourlyPrecipIn,Conditions,Clouds,dailyrainin,SolarRadiationWatts/m^2,SoftwareType,DateUTC
2013-05-06 00:01:00,55.8,49.7,29.83,South,182,0.0,0.0,80,0.00,,,0.00,0,Wunderground v.1.15,2013-05-06 07:01:00,
2013-05-06 00:10:00,55.8,49.7,29.83,South,182,0.0,0.0,80,0.00,,,0.00,0,Wunderground v.1.15,2013-05-06 07:10:00,
2013-05-06 00:21:00,55.7,49.6,29.84,South,182,0.0,0.0,80,0.00,,,0.00,0,Wunderground v.1.15,2013-05-06 07:21:00,
2013-05-06 00:30:00,55.6,49.5,29.84,South,182,0.0,0.0,80,0.00,,,0.00,0,Wunderground v.1.15,2013-05-06 07:30:00,
2013-05-06 00:41:00,55.6,49.5,29.83,South,182,0.0,0.0,80,0.00,,,0.00,0,Wunderground v.1.15,2013-05-06 07:41:00,
2013-05-06 00:50:00,55.6,49.5,29.83,SSW,199,1.0,1.0,80,0.00,,,0.00,0,Wunderground v.1.15,2013-05-06 07:50:00,
2013-05-06 01:01:00,55.6,49.5,29.84,SSW,199,0.0,0.0,80,0.00,,,0.00,0,Wunderground v.1.15,2013-05-06 08:01:00,
2013-05-06 01:11:00,55.4,49.0,29.84,SSW,199,0.0,0.0,79,0.00,,,0.00,0,Wunderground v.1.15,2013-05-06 08:11:00,
2013-05-06 01:21:00,55.2,49.1,29.84,SSW,199,0.0,0.0,80,0.00,,,0.00,0,Wunderground v.1.15,2013-05-06 08:21:00,
2013-05-06 01:30:00,55.1,49.0,29.84,SSW,200,0.0,0.0,80,0.00,,,0.00,0,Wunderground v.1.15,2013-05-06 08:30:00,
2013-05-06 01:41:00,54.9,49.2,29.84,SSW,199,0.0,0.0,81,0.00,,,0.00,0,Wunderground v.1.15,2013-05-06 08:41:00,
2013-05-06 01:51:00,54.9,49.2,29.84,SSW,199,0.0,0.0,81,0.00,,,0.00,0,Wunderground v.1.15,2013-05-06 08:51:00,
2013-05-06 02:00:00,54.8,49.1,29.84,SSW,199,0.0,0.0,81,0.00,,,0.00,0,Wunderground v.1.15,2013-05-06 09:00:00,
2013-05-06 02:11:00,54.8,49.1,29.84,SSW,200,0.0,0.0,81,0.00,,,0.00,0,Wunderground v.1.15,2013-05-06 09:11:00,
2013-05-06 02:21:00,54.8,49.1,29.84,SSW,198,0.0,0.0,81,0.00,,,0.00,0,Wunderground v.1.15,2013-05-06 09:21:00,
2013-05-06 02:30:00,54.8,49.1,29.84,SSW,195,0.0,0.0,81,0.00,,,0.00,0,Wunderground v.1.15,2013-05-06 09:30:00,
2013-05-06 02:41:00,54.8,49.4,29.84,SSW,195,0.0,0.0,82,0.00,,,0.00,0,Wunderground v.1.15,2013-05-06 09:41:00,
2013-05-06 02:51:00,54.8,49.4,29.83,SSW,195,0.0,0.0,82,0.00,,,0.00,0,Wunderground v.1.15,2013-05-06 09:51:00,
2013-05-06 03:01:00,54.8,49.4,29.83,SSW,195,0.0,0.0,82,0.00,,,0.00,0,Wunderground v.1.15,2013-05-06 10:01:00,
2013-05-06 03:10:00,54.9,49.5,29.84,SSW,195,0.0,0.0,82,0.00,,,0.00,0,Wunderground v.1.15,2013-05-06 10:10:00,
2013-05-06 03:21:00,54.9,49.2,29.83,SSW,195,0.0,0.0,81,0.00,,,0.00,0,Wunderground v.1.15,2013-05-06 10:21:00,
2013-05-06 03:31:00,54.9,49.2,29.83,SSW,195,0.0,0.0,81,0.00,,,0.00,0,Wunderground v.1.15,2013-05-06 10:31:00,
2013-05-06 03:40:00,55.0,48.9,29.83,SSW,195,0.0,0.0,80,0.00,,,0.00,0,Wunderground v.1.15,2013-05-06 10:40:00,
2013-05-06 03:51:00,55.0,48.9,29.83,SSW,195,0.0,0.0,80,0.00,,,0.00,0,Wunderground v.1.15,2013-05-06 10:51:00,
2013-05-06 04:01:00,54.9,48.8,29.83,SSW,195,0.0,0.0,80,0.00,,,0.00,0,Wunderground v.1.15,2013-05-06 11:01:00,
2013-05-06 04:11:00,54.9,48.2,29.83,SSW,195,0.0,0.0,78,0.00,,,0.00,0,Wunderground v.1.15,2013-05-06 11:11:00,
2013-05-06 04:21:00,54.9,48.2,29.83,SSW,195,0.0,0.0,78,0.00,,,0.00,0,Wunderground v.1.15,2013-05-06 11:21:00,
2013-05-06 04:31:00,54.9,48.2,29.83,SSW,195,0.0,0.0,78,0.00,,,0.00,0,Wunderground v.1.15,2013-05-06 11:31:00,
2013-05-06 04:41:00,55.0,48.3,29.83,SSW,195,0.0,0.0,78,0.00,,,0.00,0,Wunderground v.1.15,2013-05-06 11:41:00,
2013-05-06 04:50:00,55.0,48.3,29.83,SSW,195,0.0,0.0,78,0.00,,,0.00,0,Wunderground v.1.15,2013-05-06 11:50:00,
2013-05-06 05:01:00,55.0,48.3,29.84,SSW,195,0.0,0.0,78,0.00,,,0.00,0,Wunderground v.1.15,2013-05-06 12:01:00,
2013-05-06 05:11:00,54.8,47.7,29.84,SSW,195,0.0,0.0,77,0.00,,,0.00,0,Wunderground v.1.15,2013-05-06 12:11:00,
2013-05-06 05:21:00,54.8,48.1,29.83,SSW,195,0.0,0.0,78,0.00,,,0.00,0,Wunderground v.1.15,2013-05-06 12:21:00,
2013-05-06 05:30:00,54.6,47.9,29.83,SSW,196,0.0,0.0,78,0.00,,,0.00,0,Wunderground v.1.15,2013-05-06 12:30:00,
2013-05-06 05:41:00,54.5,47.8,29.83,SSW,195,0.0,0.0,78,0.00,,,0.00,0,Wunderground v.1.15,2013-05-06 12:41:00,
2013-05-06 05:51:00,54.3,47.6,29.83,SSW,195,0.0,0.0,78,0.00,,,0.00,0,Wunderground v.1.15,2013-05-06 12:51:00,
2013-05-06 06:01:00,54.0,47.3,29.83,SE,138,2.0,6.0,78,0.00,,,0.00,0,Wunderground v.1.15,2013-05-06 13:01:00,
2013-05-06 06:11:00,53.6,46.9,29.83,ESE,107,4.0,4.0,78,0.00,,,0.00,5,Wunderground v.1.15,2013-05-06 13:11:00,
2013-05-06 06:21:00,53.9,46.9,29.83,SSE,156,4.0,4.0,77,0.00,,,0.00,11,Wunderground v.1.15,2013-05-06 13:21:00,
2013-05-06 06:30:00,54.2,46.8,29.84,ESE,123,2.0,2.0,76,0.00,,,0.00,16,Wunderground v.1.15,2013-05-06 13:30:00,
2013-05-06 06:41:00,54.2,46.8,29.84,SE,133,1.0,1.0,76,0.00,,,0.00,23,Wunderground v.1.15,2013-05-06 13:41:00,
2013-05-06 06:51:00,54.2,46.8,29.84,SE,134,2.0,6.0,76,0.00,,,0.00,28,Wunderground v.1.15,2013-05-06 13:51:00,
2013-05-06 07:01:00,55.0,46.9,29.85,SSE,147,7.0,8.0,74,0.00,,,0.00,81,Wunderground v.1.15,2013-05-06 14:01:00,
2013-05-06 07:10:00,56.1,47.6,29.86,ESE,123,6.0,6.0,73,0.00,,,0.00,105,Wunderground v.1.15,2013-05-06 14:10:00,
2013-05-06 07:21:00,56.6,48.0,29.86,ESE,119,6.0,6.0,73,0.00,,,0.00,69,Wunderground v.1.15,2013-05-06 14:21:00,
2013-05-06 07:31:00,56.4,48.2,29.86,ESE,116,7.0,8.0,74,0.00,,,0.00,72,Wunderground v.1.15,2013-05-06 14:31:00,
2013-05-06 07:41:00,56.4,48.2,29.86,SE,131,7.0,7.0,74,0.00,,,0.00,146,Wunderground v.1.15,2013-05-06 14:41:00,
2013-05-06 07:51:00,56.9,48.3,29.86,SE,142,6.0,10.0,73,0.00,,,0.00,127,Wunderground v.1.15,2013-05-06 14:51:00,
2013-05-06 08:00:00,57.3,48.7,29.86,ESE,122,5.0,5.0,73,0.00,,,0.00,127,Wunderground v.1.15,2013-05-06 15:00:00,
2013-05-06 08:11:00,57.7,48.7,29.87,ESE,119,6.0,6.0,72,0.00,,,0.00,188,Wunderground v.1.15,2013-05-06 15:11:00,
2013-05-06 08:21:00,58.4,48.3,29.87,SSE,157,4.0,5.0,69,0.00,,,0.00,148,Wunderground v.1.15,2013-05-06 15:21:00,
2013-05-06 08:31:00,58.7,48.2,29.87,SE,131,3.0,3.0,68,0.00,,,0.00,109,Wunderground v.1.15,2013-05-06 15:31:00,
2013-05-06 08:41:00,58.9,48.4,29.87,SSE,166,0.0,6.0,68,0.00,,,0.00,114,Wunderground v.1.15,2013-05-06 15:41:00,
2013-05-06 08:51:00,59.4,48.4,29.87,SSW,211,1.0,6.0,67,0.00,,,0.00,492,Wunderground v.1.15,2013-05-06 15:51:00,
2013-05-06 09:01:00,59.9,48.5,29.87,South,180,3.0,3.0,66,0.00,,,0.00,462,Wunderground v.1.15,2013-05-06 16:01:00,
2013-05-06 09:11:00,60.6,47.9,29.87,SSE,153,2.0,3.0,63,0.00,,,0.00,134,Wunderground v.1.15,2013-05-06 16:11:00,
2013-05-06 09:20:00,61.1,48.8,29.88,SW,232,2.0,2.0,64,0.00,,,0.00,309,Wunderground v.1.15,2013-05-06 16:20:00,
2013-05-06 09:31:00,61.0,48.3,29.88,SSW,206,4.0,4.0,63,0.00,,,0.00,216,Wunderground v.1.15,2013-05-06 16:31:00,
2013-05-06 09:41:00,60.8,48.1,29.88,SW,231,2.0,2.0,63,0.00,,,0.00,343,Wunderground v.1.15,2013-05-06 16:41:00,
2013-05-06 09:50:00,61.5,48.8,29.88,South,175,2.0,2.0,63,0.00,,,0.00,323,Wunderground v.1.15,2013-05-06 16:50:00,
2013-05-06 10:01:00,62.0,49.3,29.88,SE,130,2.0,7.0,63,0.00,,,0.00,378,Wunderground v.1.15,2013-05-06 17:01:00,
2013-05-06 10:10:00,62.3,48.2,29.88,SSE,155,2.0,2.0,60,0.00,,,0.00,315,Wunderground v.1.15,2013-05-06 17:10:00,
2013-05-06 10:21:00,62.4,48.8,29.89,SSE,160,0.0,0.0,61,0.00,,,0.00,436,Wunderground v.1.15,2013-05-06 17:21:00,
2013-05-06 10:31:00,62.8,49.1,29.88,SSW,209,1.0,1.0,61,0.00,,,0.00,541,Wunderground v.1.15,2013-05-06 17:31:00,
2013-05-06 10:40:00,63.4,48.8,29.88,SSW,193,0.0,0.0,59,0.00,,,0.00,388,Wunderground v.1.15,2013-05-06 17:40:00,
2013-05-06 10:51:00,63.7,48.6,29.88,SSW,207,2.0,5.0,58,0.00,,,0.00,422,Wunderground v.1.15,2013-05-06 17:51:00,
2013-05-06 11:01:00,63.7,48.2,29.88,SW,219,3.0,6.0,57,0.00,,,0.00,388,Wunderground v.1.15,2013-05-06 18:01:00,
2013-05-06 11:10:00,63.7,48.2,29.89,SSW,213,3.0,5.0,57,0.00,,,0.00,276,Wunderground v.1.15,2013-05-06 18:10:00,
2013-05-06 11:21:00,63.3,48.3,29.90,SSE,167,2.0,4.0,58,0.00,,,0.00,120,Wunderground v.1.15,2013-05-06 18:21:00,
2013-05-06 11:31:00,62.6,50.7,29.90,SSE,150,2.0,4.0,65,0.00,,,0.00,432,Wunderground v.1.15,2013-05-06 18:31:00,
2013-05-06 11:41:00,62.9,50.1,29.90,South,173,0.0,0.0,63,0.00,,,0.00,485,Wunderground v.1.15,2013-05-06 18:41:00,
2013-05-06 11:51:00,63.7,49.1,29.90,SSE,165,0.0,0.0,59,0.00,,,0.00,290,Wunderground v.1.15,2013-05-06 18:51:00,
2013-05-06 12:01:00,63.8,49.2,29.89,South,178,1.0,1.0,59,0.00,,,0.00,533,Wunderground v.1.15,2013-05-06 19:01:00,
2013-05-06 12:11:00,64.2,49.6,29.89,SE,140,1.0,1.0,59,0.00,,,0.00,290,Wunderground v.1.15,2013-05-06 19:11:00,
2013-05-06 12:21:00,64.6,49.5,29.89,WSW,244,1.0,3.0,58,0.00,,,0.00,248,Wunderground v.1.15,2013-05-06 19:21:00,
2013-05-06 12:31:00,64.9,48.8,29.89,South,185,1.0,5.0,56,0.00,,,0.00,239,Wunderground v.1.15,2013-05-06 19:31:00,
2013-05-06 12:41:00,65.0,48.9,29.89,West,269,2.0,7.0,56,0.00,,,0.00,392,Wunderground v.1.15,2013-05-06 19:41:00,
2013-05-06 12:50:00,64.3,50.6,29.89,WNW,297,6.0,6.0,61,0.00,,,0.00,362,Wunderground v.1.15,2013-05-06 19:50:00,
2013-05-06 13:01:00,63.9,51.5,29.89,NNW,330,3.0,5.0,64,0.00,,,0.00,431,Wunderground v.1.15,2013-05-06 20:01:00,
2013-05-06 13:11:00,62.8,51.3,29.89,North,350,6.0,6.0,66,0.00,,,0.00,496,Wunderground v.1.15,2013-05-06 20:11:00,
2013-05-06 13:21:00,62.6,51.9,29.89,North,355,5.0,6.0,68,0.00,,,0.00,547,Wunderground v.1.15,2013-05-06 20:21:00,
2013-05-06 13:30:00,62.8,51.3,29.89,NNW,341,4.0,7.0,66,0.00,,,0.00,933,Wunderground v.1.15,2013-05-06 20:30:00,
2013-05-06 13:41:00,63.0,51.0,29.90,NNW,333,7.0,7.0,65,0.00,,,0.00,1185,Wunderground v.1.15,2013-05-06 20:41:00,
2013-05-06 13:51:00,62.9,51.4,29.90,NE,44,5.0,7.0,66,0.00,,,0.00,311,Wunderground v.1.15,2013-05-06 20:51:00,
2013-05-06 14:01:00,62.6,50.7,29.90,NNE,17,8.0,10.0,65,0.00,,,0.00,1280,Wunderground v.1.15,2013-05-06 21:01:00,
2013-05-06 14:11:00,63.1,51.6,29.89,NNW,333,6.0,7.0,66,0.00,,,0.00,1216,Wunderground v.1.15,2013-05-06 21:11:00,
2013-05-06 14:21:00,63.2,50.4,29.90,SW,223,5.0,5.0,63,0.00,,,0.00,427,Wunderground v.1.15,2013-05-06 21:21:00,
2013-05-06 14:30:00,63.4,50.6,29.90,South,190,3.0,3.0,63,0.00,,,0.00,221,Wunderground v.1.15,2013-05-06 21:30:00,
2013-05-06 14:41:00,63.0,49.8,29.89,North,351,6.0,6.0,62,0.00,,,0.00,594,Wunderground v.1.15,2013-05-06 21:41:00,
2013-05-06 14:50:00,63.6,50.3,29.90,NW,313,5.0,5.0,62,0.00,,,0.00,791,Wunderground v.1.15,2013-05-06 21:50:00,
2013-05-06 15:01:00,64.1,50.4,29.89,NNW,336,2.0,2.0,61,0.00,,,0.00,258,Wunderground v.1.15,2013-05-06 22:01:00,
2013-05-06 15:11:00,63.7,50.0,29.89,NNW,340,2.0,7.0,61,0.00,,,0.00,387,Wunderground v.1.15,2013-05-06 22:11:00,
2013-05-06 15:20:00,63.3,50.1,29.89,NNE,18,2.0,6.0,62,0.00,,,0.00,359,Wunderground v.1.15,2013-05-06 22:20:00,
2013-05-06 15:31:00,63.4,49.7,29.89,NNE,12,5.0,9.0,61,0.00,,,0.00,476,Wunderground v.1.15,2013-05-06 22:31:00,
2013-05-06 15:41:00,63.4,50.1,29.89,NNW,330,5.0,7.0,62,0.00,,,0.00,1090,Wunderground v.1.15,2013-05-06 22:41:00,
2013-05-06 15:50:00,64.4,49.8,29.89,NNW,327,3.0,5.0,59,0.00,,,0.00,134,Wunderground v.1.15,2013-05-06 22:50:00,
2013-05-06 16:01:00,64.5,48.9,29.88,East,82,1.0,6.0,57,0.00,,,0.00,294,Wunderground v.1.15,2013-05-06 23:01:00,
2013-05-06 16:11:00,64.2,49.1,29.88,NW,323,4.0,5.0,58,0.00,,,0.00,178,Wunderground v.1.15,2013-05-06 23:11:00,
2013-05-06 16:20:00,63.8,49.6,29.88,NW,315,3.0,6.0,60,0.00,,,0.00,113,Wunderground v.1.15,2013-05-06 23:20:00,
2013-05-06 16:30:00,63.1,49.9,29.87,North,5,7.0,9.0,62,0.00,,,0.00,113,Wunderground v.1.15,2013-05-06 23:30:00,
2013-05-06 16:40:00,62.5,50.2,29.88,NNE,28,4.0,6.0,64,0.00,,,0.00,156,Wunderground v.1.15,2013-05-06 23:40:00,
2013-05-06 16:51:00,62.4,50.5,29.88,NNE,22,3.0,6.0,65,0.00,,,0.00,230,Wunderground v.1.15,2013-05-06 23:51:00,
2013-05-06 17:01:00,62.5,50.2,29.88,NNE,26,6.0,6.0,64,0.00,,,0.00,306,Wunderground v.1.15,2013-05-07 00:01:00,
2013-05-06 17:10:00,62.6,50.2,29.88,NNE,12,6.0,6.0,64,0.00,,,0.00,172,Wunderground v.1.15,2013-05-07 00:10:00,
2013-05-06 17:21:00,62.6,49.8,29.88,NNW,342,7.0,8.0,63,0.00,,,0.00,132,Wunderground v.1.15,2013-05-07 00:21:00,
2013-05-06 17:31:00,62.3,49.5,29.88,North,349,8.0,10.0,63,0.00,,,0.00,132,Wunderground v.1.15,2013-05-07 00:31:00,
2013-05-06 17:41:00,62.0,49.7,29.88,NNW,348,8.0,8.0,64,0.00,,,0.00,132,Wunderground v.1.15,2013-05-07 00:41:00,
2013-05-06 17:51:00,61.9,50.0,29.88,NNW,337,10.0,10.0,65,0.00,,,0.00,192,Wunderground v.1.15,2013-05-07 00:51:00,
2013-05-06 18:01:00,62.2,51.1,29.88,North,355,9.0,9.0,67,0.00,,,0.00,466,Wunderground v.1.15,2013-05-07 01:01:00,
2013-05-06 18:15:00,62.0,50.5,29.89,NNW,336,9.0,9.0,66,0.00,,,0.00,121,Wunderground v.1.15,2013-05-07 01:15:00,
2013-05-06 18:21:00,61.6,50.5,29.89,NNE,13,9.0,11.0,67,0.00,,,0.00,105,Wunderground v.1.15,2013-05-07 01:21:00,
2013-05-06 18:31:00,60.9,50.3,29.89,NNW,344,9.0,11.0,68,0.00,,,0.00,192,Wunderground v.1.15,2013-05-07 01:31:00,
2013-05-06 18:41:00,60.7,50.1,29.89,North,355,10.0,10.0,68,0.00,,,0.00,239,Wunderground v.1.15,2013-05-07 01:41:00,
2013-05-06 18:51:00,60.7,50.1,29.89,North,360,9.0,11.0,68,0.00,,,0.00,107,Wunderground v.1.15,2013-05-07 01:51:00,
2013-05-06 19:01:00,60.5,49.9,29.89,North,9,9.0,9.0,68,0.00,,,0.00,67,Wunderground v.1.15,2013-05-07 02:01:00,
2013-05-06 19:10:00,60.4,49.8,29.89,NNE,15,7.0,9.0,68,0.00,,,0.00,70,Wunderground v.1.15,2013-05-07 02:10:00,
2013-05-06 19:21:00,60.3,49.7,29.89,North,5,6.0,8.0,68,0.00,,,0.00,56,Wunderground v.1.15,2013-05-07 02:21:00,
2013-05-06 19:31:00,60.2,49.6,29.89,North,355,7.0,7.0,68,0.00,,,0.00,42,Wunderground v.1.15,2013-05-07 02:31:00,
2013-05-06 19:41:00,60.2,49.6,29.90,North,10,6.0,9.0,68,0.00,,,0.00,18,Wunderground v.1.15,2013-05-07 02:41:00,
2013-05-06 19:50:00,60.1,49.5,29.90,NNW,345,6.0,6.0,68,0.00,,,0.00,7,Wunderground v.1.15,2013-05-07 02:50:00,
2013-05-06 20:01:00,59.9,49.7,29.90,NNE,14,7.0,7.0,69,0.00,,,0.00,5,Wunderground v.1.15,2013-05-07 03:01:00,
2013-05-06 20:11:00,59.8,50.4,29.91,NNW,343,8.0,8.0,71,0.00,,,0.00,0,Wunderground v.1.15,2013-05-07 03:11:00,
2013-05-06 20:20:00,59.5,50.5,29.91,NNE,28,8.0,9.0,72,0.00,,,0.00,0,Wunderground v.1.15,2013-05-07 03:20:00,
2013-05-06 20:31:00,59.1,50.5,29.92,North,9,10.0,10.0,73,0.00,,,0.00,0,Wunderground v.1.15,2013-05-07 03:31:00,
2013-05-06 20:41:00,58.7,50.1,29.92,North,355,8.0,9.0,73,0.00,,,0.00,0,Wunderground v.1.15,2013-05-07 03:41:00,
2013-05-06 20:51:00,58.6,50.3,29.92,NNE,20,7.0,7.0,74,0.00,,,0.00,0,Wunderground v.1.15,2013-05-07 03:51:00,
2013-05-06 21:01:00,58.4,50.5,29.93,North,355,6.0,6.0,75,0.00,,,0.00,0,Wunderground v.1.15,2013-05-07 04:01:00,
2013-05-06 21:05:00,58.4,50.5,29.94,NNW,347,6.0,6.0,75,0.00,,,0.00,0,Wunderground v.1.15,2013-05-07 04:05:00,
2013-05-06 21:10:00,58.3,50.4,29.95,North,355,4.0,4.0,75,0.00,,,0.00,0,Wunderground v.1.15,2013-05-07 04:10:00,
2013-05-06 21:20:00,58.2,50.7,29.95,North,355,0.0,0.0,76,0.00,,,0.00,0,Wunderground v.1.15,2013-05-07 04:20:00,
2013-05-06 21:25:00,58.2,50.7,29.95,North,5,0.0,0.0,76,0.00,,,0.00,0,Wunderground v.1.15,2013-05-07 04:25:00,
2013-05-06 21:31:00,58.1,50.6,29.96,North,5,0.0,0.0,76,0.00,,,0.00,0,Wunderground v.1.15,2013-05-07 04:31:00,
2013-05-06 21:41:00,58.0,50.8,29.96,North,360,1.0,1.0,77,0.00,,,0.00,0,Wunderground v.1.15,2013-05-07 04:41:00,
2013-05-06 21:50:00,57.8,51.0,29.96,North,9,3.0,3.0,78,0.00,,,0.00,0,Wunderground v.1.15,2013-05-07 04:50:00,
2013-05-06 22:01:00,57.5,51.0,29.97,NNE,12,2.0,2.0,79,0.00,,,0.00,0,Wunderground v.1.15,2013-05-07 05:01:00,
2013-05-06 22:11:00,57.4,51.3,29.97,NNE,13,0.0,0.0,80,0.00,,,0.00,0,Wunderground v.1.15,2013-05-07 05:11:00,
2013-05-06 22:21:00,57.2,51.1,29.97,NNE,18,1.0,4.0,80,0.00,,,0.00,0,Wunderground v.1.15,2013-05-07 05:21:00,
2013-05-06 22:31:00,57.1,51.0,29.98,NNE,18,0.0,0.0,80,0.00,,,0.00,0,Wunderground v.1.15,2013-05-07 05:31:00,
2013-05-06 22:41:00,57.1,51.0,29.98,NNE,17,0.0,0.0,80,0.00,,,0.00,0,Wunderground v.1.15,2013-05-07 05:41:00,
2013-05-06 22:51:00,57.0,50.9,29.98,NNE,17,0.0,0.0,80,0.00,,,0.00,0,Wunderground v.1.15,2013-05-07 05:51:00,
2013-05-06 23:01:00,57.0,50.9,29.98,NNE,17,0.0,0.0,80,0.00,,,0.00,0,Wunderground v.1.15,2013-05-07 06:01:00,
2013-05-06 23:11:00,57.0,50.9,29.98,NNE,17,0.0,0.0,80,0.00,,,0.00,0,Wunderground v.1.15,2013-05-07 06:11:00,
2013-05-06 23:21:00,57.0,50.9,29.98,NNE,17,0.0,0.0,80,0.00,,,0.00,0,Wunderground v.1.15,2013-05-07 06:21:00,
2013-05-06 23:31:00,57.0,50.5,29.99,NNE,18,0.0,0.0,79,0.00,,,0.00,0,Wunderground v.1.15,2013-05-07 06:31:00,
2013-05-06 23:41:00,57.0,50.9,29.99,NNE,17,0.0,0.0,80,0.00,,,0.00,0,Wunderground v.1.15,2013-05-07 06:41:00,
2013-05-06 23:51:00,57.0,50.5,29.99,NNE,17,0.0,0.0,79,0.00,,,0.00,0,Wunderground v.1.15,2013-05-07 06:51:00,